Time;durP1;ratioP1;P1;durP2;ratioP2;P2;SDS_P1;SDS_P2;PMS_P1;PMS_P2;Temp;Humidity;BMP_temperature;BMP_pressure;BME280_temperature;BME280_humidity;BME280_pressure;Samples;Min_cycle;Max_cycle;Signal;HPM_P1;HPM_P2
2021/09/11 00:00:55;;;;;;;6.85;5.30;;;19.20;99.90;;;;;;5112640;28;20639;-68
2021/09/11 00:03:22;;;;;;;8.43;5.88;;;19.20;99.90;;;;;;5097053;28;20204;-68
2021/09/11 00:05:49;;;;;;;7.75;5.53;;;19.10;99.90;;;;;;5100889;28;20865;-68
2021/09/11 00:08:16;;;;;;;6.68;5.65;;;19.10;99.90;;;;;;5094930;28;20201;-68
2021/09/11 00:10:43;;;;;;;8.10;5.55;;;19.10;99.90;;;;;;5090717;28;20198;-68
2021/09/11 00:13:11;;;;;;;7.95;5.68;;;19.10;99.90;;;;;;5084893;28;20198;-68
2021/09/11 00:15:38;;;;;;;5.80;5.15;;;19.10;99.90;;;;;;5099335;28;20290;-68
2021/09/11 00:18:06;;;;;;;7.00;5.00;;;19.00;99.90;;;;;;5096804;28;20200;-68
2021/09/11 00:20:33;;;;;;;7.07;5.00;;;19.10;99.90;;;;;;5094822;28;20202;-68
2021/09/11 00:23:01;;;;;;;7.35;5.78;;;19.10;99.90;;;;;;5092430;28;20216;-68
2021/09/11 00:25:29;;;;;;;8.38;5.70;;;19.00;99.90;;;;;;5089582;28;20229;-69
2021/09/11 00:27:56;;;;;;;7.65;5.90;;;19.00;99.90;;;;;;5090612;28;20205;-68
2021/09/11 00:30:24;;;;;;;9.90;5.50;;;18.90;99.90;;;;;;5090885;28;20216;-68
2021/09/11 00:32:51;;;;;;;6.60;5.85;;;19.00;99.90;;;;;;5090697;28;20193;-74
2021/09/11 00:35:18;;;;;;;8.93;5.70;;;19.00;99.90;;;;;;5090563;28;20216;-75
2021/09/11 00:37:47;;;;;;;8.48;6.13;;;19.00;99.90;;;;;;5090559;28;20216;-74
2021/09/11 00:40:16;;;;;;;7.45;5.53;;;19.00;99.90;;;;;;5089731;28;20236;-75
2021/09/11 00:42:47;;;;;;;7.35;5.82;;;19.00;99.90;;;;;;5090880;28;20201;-74
2021/09/11 00:45:14;;;;;;;8.40;5.93;;;18.90;99.90;;;;;;5092904;28;20271;-74
2021/09/11 00:47:42;;;;;;;6.43;5.60;;;19.00;99.90;;;;;;5090798;28;20214;-75
2021/09/11 00:50:10;;;;;;;8.68;6.18;;;19.00;99.90;;;;;;5092238;28;20464;-74
2021/09/11 00:52:39;;;;;;;9.30;5.85;;;19.00;99.90;;;;;;5091777;28;20656;-75
2021/09/11 00:55:08;;;;;;;6.72;5.50;;;18.90;99.90;;;;;;5090744;28;20206;-75
2021/09/11 00:57:36;;;;;;;7.50;5.78;;;18.90;99.90;;;;;;5091264;28;20201;-74
2021/09/11 01:00:04;;;;;;;8.50;6.05;;;18.90;99.90;;;;;;5091318;28;20647;-74
2021/09/11 01:02:31;;;;;;;7.15;6.18;;;18.90;99.90;;;;;;5089444;28;20210;-74
2021/09/11 01:04:59;;;;;;;13.43;7.13;;;18.90;99.90;;;;;;5092702;28;20233;-74
2021/09/11 01:07:27;;;;;;;7.38;5.95;;;18.80;99.90;;;;;;5093447;28;20215;-74
2021/09/11 01:09:54;;;;;;;10.57;6.75;;;18.90;99.90;;;;;;5088969;28;20219;-74
2021/09/11 01:12:21;;;;;;;9.15;6.13;;;18.90;99.90;;;;;;5093074;28;20208;-74
2021/09/11 01:14:48;;;;;;;8.02;6.32;;;18.90;99.90;;;;;;5091555;28;20200;-74
2021/09/11 01:17:15;;;;;;;8.32;6.50;;;18.90;99.90;;;;;;5091269;28;21724;-75
2021/09/11 01:19:42;;;;;;;7.93;6.43;;;18.80;99.90;;;;;;5090730;28;20208;-74
2021/09/11 01:22:14;;;;;;;12.65;7.68;;;18.80;99.90;;;;;;5092504;28;20197;-75
2021/09/11 01:24:54;;;;;;;9.80;6.07;;;18.70;99.90;;;;;;5090160;28;20205;-75
2021/09/11 01:27:21;;;;;;;8.70;6.75;;;18.80;99.90;;;;;;5090504;28;20231;-74
2021/09/11 01:29:53;;;;;;;8.57;6.10;;;18.70;99.90;;;;;;5089759;28;20455;-75
2021/09/11 01:32:20;;;;;;;11.35;7.47;;;18.70;99.90;;;;;;5088787;28;20205;-74
2021/09/11 01:34:46;;;;;;;9.18;6.35;;;18.70;99.90;;;;;;5088846;28;20278;-74
2021/09/11 01:37:14;;;;;;;9.50;6.40;;;18.70;99.90;;;;;;5090101;28;20298;-75
2021/09/11 01:39:41;;;;;;;9.82;6.68;;;18.80;99.90;;;;;;5088563;28;20284;-74
2021/09/11 01:42:09;;;;;;;11.85;7.88;;;18.80;99.90;;;;;;5087907;28;20193;-75
2021/09/11 01:44:36;;;;;;;10.23;7.63;;;18.70;99.90;;;;;;5089796;28;20206;-75
2021/09/11 01:47:03;;;;;;;11.07;8.35;;;18.70;99.90;;;;;;5089943;28;20213;-75
2021/09/11 01:49:30;;;;;;;10.93;7.65;;;18.80;99.90;;;;;;5087887;28;20201;-74
2021/09/11 01:51:57;;;;;;;8.30;7.25;;;18.80;99.90;;;;;;5090531;28;20207;-75
2021/09/11 01:54:24;;;;;;;13.77;9.05;;;18.70;99.90;;;;;;5089245;28;20650;-74
2021/09/11 01:56:51;;;;;;;10.65;8.00;;;18.60;99.90;;;;;;5088411;28;20208;-74
2021/09/11 01:59:19;;;;;;;11.50;8.45;;;18.70;99.90;;;;;;5087740;28;20601;-75
2021/09/11 02:01:45;;;;;;;10.93;8.60;;;18.70;99.90;;;;;;5089658;28;20213;-74
2021/09/11 02:04:12;;;;;;;12.40;9.15;;;18.70;99.90;;;;;;5088485;28;20670;-74
2021/09/11 02:06:39;;;;;;;11.77;9.00;;;18.60;99.90;;;;;;5087470;28;20213;-74
2021/09/11 02:09:07;;;;;;;11.93;8.20;;;18.60;99.90;;;;;;5088098;28;20206;-75
2021/09/11 02:11:34;;;;;;;12.43;8.60;;;18.60;99.90;;;;;;5087764;28;20677;-74
2021/09/11 02:14:01;;;;;;;10.77;8.25;;;18.70;99.90;;;;;;5088249;28;20997;-74
2021/09/11 02:16:29;;;;;;;10.73;8.70;;;18.70;99.90;;;;;;5088161;28;20201;-74
2021/09/11 02:18:56;;;;;;;11.20;8.63;;;18.70;99.90;;;;;;5087822;28;20201;-74
2021/09/11 02:21:23;;;;;;;12.80;9.13;;;18.60;99.90;;;;;;5088209;28;20577;-75
2021/09/11 02:23:50;;;;;;;13.90;8.80;;;18.60;99.90;;;;;;5088612;28;20219;-74
2021/09/11 02:26:17;;;;;;;10.70;8.13;;;18.70;99.90;;;;;;5085448;28;20687;-74
2021/09/11 02:28:44;;;;;;;13.38;9.45;;;18.60;99.90;;;;;;5087124;28;20297;-75
2021/09/11 02:31:11;;;;;;;11.48;8.25;;;18.60;99.90;;;;;;5086715;28;20201;-74
2021/09/11 02:33:40;;;;;;;12.07;8.55;;;18.60;99.90;;;;;;5088119;28;20562;-70
2021/09/11 02:36:07;;;;;;;10.27;7.97;;;18.60;99.90;;;;;;5087688;28;20202;-68
2021/09/11 02:38:34;;;;;;;12.23;8.82;;;18.60;99.90;;;;;;5087357;28;20289;-74
2021/09/11 02:41:01;;;;;;;9.88;8.20;;;18.60;99.90;;;;;;5087065;28;20217;-74
2021/09/11 02:43:28;;;;;;;14.07;8.48;;;18.60;99.90;;;;;;5087530;28;20201;-73
2021/09/11 02:45:56;;;;;;;11.45;7.82;;;18.60;99.90;;;;;;5091267;28;20566;-73
2021/09/11 02:48:22;;;;;;;12.82;8.73;;;18.50;99.90;;;;;;5090946;28;20198;-73
2021/09/11 02:50:51;;;;;;;10.05;8.55;;;18.50;99.90;;;;;;5091046;28;20205;-73
2021/09/11 02:53:18;;;;;;;12.18;8.88;;;18.50;99.90;;;;;;5090085;28;20369;-73
2021/09/11 02:55:46;;;;;;;16.02;9.57;;;18.50;99.90;;;;;;5091162;28;20230;-73
2021/09/11 02:58:12;;;;;;;14.43;9.77;;;18.50;99.90;;;;;;5090771;28;20727;-73
2021/09/11 03:00:40;;;;;;;14.15;9.63;;;18.60;99.90;;;;;;5091519;28;20643;-73
2021/09/11 03:03:06;;;;;;;12.23;9.57;;;18.60;99.90;;;;;;5090759;28;20202;-73
2021/09/11 03:05:33;;;;;;;11.82;9.57;;;18.60;99.90;;;;;;5092040;28;20198;-73
2021/09/11 03:08:01;;;;;;;12.18;9.05;;;18.50;99.90;;;;;;5092183;28;20204;-73
2021/09/11 03:10:28;;;;;;;12.25;9.43;;;18.60;99.90;;;;;;5090243;28;20654;-73
2021/09/11 03:12:56;;;;;;;13.27;9.73;;;18.50;99.90;;;;;;5088981;28;20209;-73
2021/09/11 03:15:22;;;;;;;11.77;8.98;;;18.60;99.90;;;;;;5090940;28;20466;-73
2021/09/11 03:17:49;;;;;;;14.73;9.93;;;18.50;99.90;;;;;;5091099;28;20639;-73
2021/09/11 03:20:16;;;;;;;13.35;9.57;;;18.40;99.90;;;;;;5090177;28;20205;-73
2021/09/11 03:22:44;;;;;;;13.68;9.80;;;18.40;99.90;;;;;;5090526;28;20483;-73
2021/09/11 03:25:13;;;;;;;14.05;9.85;;;18.30;99.90;;;;;;5090824;28;20551;-73
2021/09/11 03:27:40;;;;;;;12.02;9.57;;;18.30;99.90;;;;;;5090871;28;20241;-73
2021/09/11 03:30:08;;;;;;;13.85;9.57;;;18.30;99.90;;;;;;5090312;28;20266;-73
2021/09/11 03:32:35;;;;;;;15.75;10.00;;;18.30;99.90;;;;;;5091019;28;20209;-73
2021/09/11 03:35:02;;;;;;;14.25;10.15;;;18.30;99.90;;;;;;5090244;28;20205;-73
2021/09/11 03:37:29;;;;;;;12.82;9.55;;;18.30;99.90;;;;;;5090736;28;20569;-73
2021/09/11 03:39:56;;;;;;;12.25;9.45;;;18.30;99.90;;;;;;5089341;28;20567;-73
2021/09/11 03:42:24;;;;;;;13.77;9.38;;;18.30;99.90;;;;;;5090118;28;20202;-73
2021/09/11 03:44:51;;;;;;;15.50;10.02;;;18.30;99.90;;;;;;5090668;28;20575;-73
2021/09/11 03:47:18;;;;;;;18.13;11.55;;;18.20;99.90;;;;;;5089606;28;20221;-73
2021/09/11 03:49:45;;;;;;;14.50;11.07;;;18.20;99.90;;;;;;5089582;28;20202;-73
2021/09/11 03:52:11;;;;;;;14.98;10.43;;;18.20;99.90;;;;;;5089260;28;20209;-73
2021/09/11 03:54:38;;;;;;;17.58;10.65;;;18.10;99.90;;;;;;5090179;28;20204;-73
2021/09/11 03:57:06;;;;;;;17.00;10.80;;;18.10;99.90;;;;;;5089362;28;20194;-73
2021/09/11 03:59:34;;;;;;;12.75;9.52;;;18.20;99.90;;;;;;5088866;28;20197;-73
2021/09/11 04:02:01;;;;;;;16.15;11.45;;;18.20;99.90;;;;;;5089552;28;20221;-73
2021/09/11 04:04:28;;;;;;;17.02;11.05;;;18.10;99.90;;;;;;5090043;28;20206;-73
2021/09/11 04:06:55;;;;;;;19.48;14.02;;;18.10;99.90;;;;;;5088968;28;20221;-73
2021/09/11 04:09:22;;;;;;;16.30;11.40;;;18.20;99.90;;;;;;5088924;28;20193;-73
2021/09/11 04:11:48;;;;;;;15.48;10.95;;;18.10;99.90;;;;;;5090722;28;20739;-73
2021/09/11 04:14:15;;;;;;;16.80;11.68;;;18.10;99.90;;;;;;5089846;28;20552;-73
2021/09/11 04:16:43;;;;;;;16.35;11.82;;;18.20;99.90;;;;;;5089668;28;20202;-73
2021/09/11 04:19:10;;;;;;;16.45;12.00;;;18.10;99.90;;;;;;5088810;28;20205;-73
2021/09/11 04:21:37;;;;;;;17.13;12.20;;;18.20;99.90;;;;;;5088955;28;20572;-73
2021/09/11 04:24:06;;;;;;;17.73;13.15;;;18.10;99.90;;;;;;5090908;28;20202;-73
2021/09/11 04:26:33;;;;;;;18.05;12.95;;;18.10;99.90;;;;;;5089568;28;20232;-73
2021/09/11 04:29:00;;;;;;;21.85;16.48;;;18.10;99.90;;;;;;5089529;28;20193;-73
2021/09/11 04:31:27;;;;;;;16.38;13.15;;;18.10;99.90;;;;;;5089237;28;20210;-73
2021/09/11 04:33:55;;;;;;;19.17;12.70;;;18.10;99.90;;;;;;5089767;28;20635;-73
2021/09/11 04:36:22;;;;;;;17.20;12.40;;;18.20;99.90;;;;;;5088970;28;20561;-73
2021/09/11 04:38:49;;;;;;;17.23;11.73;;;18.20;99.90;;;;;;5088350;28;20577;-73
2021/09/11 04:41:16;;;;;;;22.92;15.75;;;18.10;99.90;;;;;;5089242;28;20202;-73
2021/09/11 04:43:43;;;;;;;25.48;20.92;;;18.10;99.90;;;;;;5088493;28;20206;-73
2021/09/11 04:46:10;;;;;;;17.33;12.45;;;18.10;99.90;;;;;;5088909;28;20198;-73
2021/09/11 04:48:36;;;;;;;17.30;12.68;;;18.10;99.90;;;;;;5087804;28;20310;-73
2021/09/11 04:51:05;;;;;;;17.25;11.82;;;18.10;99.90;;;;;;5088684;28;20202;-73
2021/09/11 04:53:32;;;;;;;15.30;11.60;;;18.10;99.90;;;;;;5088683;28;20216;-73
2021/09/11 04:55:58;;;;;;;14.90;10.75;;;18.10;99.90;;;;;;5089152;28;20219;-73
2021/09/11 04:58:25;;;;;;;17.00;11.38;;;18.10;99.90;;;;;;5088315;28;20197;-73
2021/09/11 05:00:52;;;;;;;15.13;10.20;;;18.10;99.90;;;;;;5088373;28;20233;-73
2021/09/11 05:03:19;;;;;;;14.35;10.77;;;18.20;99.90;;;;;;5087670;28;20281;-73
2021/09/11 05:05:46;;;;;;;14.18;9.93;;;18.20;99.90;;;;;;5087700;28;20647;-73
2021/09/11 05:08:17;;;;;;;16.70;10.35;;;18.20;99.90;;;;;;5087174;28;20233;-73
2021/09/11 05:10:45;;;;;;;14.27;10.27;;;18.30;99.90;;;;;;5088194;28;20201;-73
2021/09/11 05:13:12;;;;;;;14.63;10.00;;;18.30;99.90;;;;;;5088667;28;20209;-73
2021/09/11 05:15:39;;;;;;;14.32;9.85;;;18.30;99.90;;;;;;5087424;28;20217;-73
2021/09/11 05:18:06;;;;;;;15.38;9.80;;;18.20;99.90;;;;;;5087754;28;20205;-73
2021/09/11 05:20:33;;;;;;;13.18;9.32;;;18.20;99.90;;;;;;5087656;28;20209;-73
2021/09/11 05:23:00;;;;;;;14.07;9.45;;;18.20;99.90;;;;;;5088059;28;20284;-73
2021/09/11 05:25:28;;;;;;;12.70;9.38;;;18.20;99.90;;;;;;5088293;28;20205;-73
2021/09/11 05:27:55;;;;;;;15.13;9.40;;;18.30;99.90;;;;;;5087726;28;20216;-73
2021/09/11 05:30:22;;;;;;;12.32;9.18;;;18.20;99.90;;;;;;5087659;28;20203;-73
2021/09/11 05:32:49;;;;;;;13.45;9.45;;;18.30;99.90;;;;;;5086491;28;20202;-73
2021/09/11 05:35:16;;;;;;;12.68;8.32;;;18.30;99.90;;;;;;5089719;28;20219;-73
2021/09/11 05:37:43;;;;;;;12.02;8.32;;;18.30;99.90;;;;;;5089244;28;20205;-73
2021/09/11 05:40:10;;;;;;;10.05;7.65;;;18.30;99.90;;;;;;5086752;28;20728;-73
2021/09/11 05:42:38;;;;;;;12.20;9.00;;;18.40;99.90;;;;;;5087594;28;20209;-73
2021/09/11 05:45:06;;;;;;;11.65;8.48;;;18.50;99.90;;;;;;5087548;28;20204;-73
2021/09/11 05:47:33;;;;;;;12.98;8.60;;;18.60;99.90;;;;;;5088944;28;20213;-73
2021/09/11 05:50:00;;;;;;;11.27;8.23;;;18.50;99.90;;;;;;5087165;28;20679;-73
2021/09/11 05:52:27;;;;;;;12.75;9.18;;;18.60;99.90;;;;;;5087611;28;20208;-73
2021/09/11 05:54:54;;;;;;;10.15;7.47;;;18.60;99.90;;;;;;5088882;28;20212;-73
2021/09/11 05:57:20;;;;;;;9.90;7.15;;;18.60;99.90;;;;;;5087899;28;20206;-73
2021/09/11 05:59:49;;;;;;;10.40;7.90;;;18.70;99.90;;;;;;5087847;28;20218;-74
2021/09/11 06:02:15;;;;;;;10.18;7.10;;;18.80;99.90;;;;;;5087518;28;20225;-73
2021/09/11 06:04:42;;;;;;;10.25;6.43;;;18.70;99.90;;;;;;5087692;28;20209;-73
2021/09/11 06:07:09;;;;;;;7.90;6.28;;;18.80;99.90;;;;;;5087498;28;20758;-73
2021/09/11 06:09:36;;;;;;;10.70;6.90;;;18.90;99.90;;;;;;5088131;28;20201;-73
2021/09/11 06:12:05;;;;;;;7.72;6.68;;;18.90;99.90;;;;;;5087512;28;20666;-74
2021/09/11 06:14:32;;;;;;;10.35;6.40;;;19.00;99.90;;;;;;5087762;28;20213;-73
2021/09/11 06:17:00;;;;;;;8.80;6.50;;;19.00;99.90;;;;;;5087788;28;20235;-74
2021/09/11 06:19:27;;;;;;;7.68;6.07;;;19.10;99.90;;;;;;5091746;28;20198;-73
2021/09/11 06:21:54;;;;;;;8.43;6.13;;;19.10;99.90;;;;;;5088403;28;20202;-74
2021/09/11 06:24:21;;;;;;;7.60;5.55;;;19.00;99.90;;;;;;5092499;28;20567;-74
2021/09/11 06:26:48;;;;;;;9.82;5.60;;;19.10;99.90;;;;;;5092543;28;20211;-74
2021/09/11 06:29:15;;;;;;;7.72;5.60;;;19.10;99.90;;;;;;5091363;28;20192;-74
2021/09/11 06:31:42;;;;;;;7.88;5.82;;;19.20;99.90;;;;;;5092901;28;20585;-74
2021/09/11 06:34:10;;;;;;;9.80;6.68;;;19.20;99.90;;;;;;5091333;28;20218;-74
2021/09/11 06:36:37;;;;;;;7.30;6.03;;;19.10;99.90;;;;;;5091855;28;20212;-73
2021/09/11 06:39:04;;;;;;;8.43;6.03;;;19.20;99.90;;;;;;5092773;28;20544;-74
2021/09/11 06:41:31;;;;;;;9.63;6.45;;;19.30;99.90;;;;;;5093400;28;20581;-74
2021/09/11 06:43:58;;;;;;;7.28;6.10;;;19.30;99.90;;;;;;5091551;28;20194;-74
2021/09/11 06:46:25;;;;;;;9.18;6.47;;;19.30;99.90;;;;;;5092850;28;20198;-74
2021/09/11 06:48:52;;;;;;;7.93;6.35;;;19.30;99.90;;;;;;5091022;28;20689;-74
2021/09/11 06:51:20;;;;;;;8.02;6.50;;;19.30;99.90;;;;;;5090629;28;20205;-74
2021/09/11 06:53:47;;;;;;;9.02;7.03;;;19.30;99.90;;;;;;5093060;28;20209;-73
2021/09/11 06:56:14;;;;;;;7.97;6.57;;;19.40;99.90;;;;;;5090002;28;20198;-74
2021/09/11 06:58:41;;;;;;;7.97;6.53;;;19.50;99.90;;;;;;5090694;28;20201;-74
2021/09/11 07:01:07;;;;;;;10.07;7.32;;;19.50;99.90;;;;;;5091596;28;20214;-74
2021/09/11 07:03:35;;;;;;;8.95;7.00;;;19.60;99.90;;;;;;5091432;28;20212;-74
2021/09/11 07:06:03;;;;;;;9.38;6.80;;;19.60;99.90;;;;;;5091199;28;20209;-73
2021/09/11 07:08:32;;;;;;;9.02;7.10;;;19.60;99.90;;;;;;5090521;28;20226;-74
2021/09/11 07:10:59;;;;;;;8.95;6.65;;;19.60;99.90;;;;;;5090870;28;20197;-73
2021/09/11 07:13:26;;;;;;;10.48;7.10;;;19.60;99.90;;;;;;5092728;28;20207;-74
2021/09/11 07:15:53;;;;;;;8.15;6.95;;;19.60;99.90;;;;;;5091222;28;20577;-74
2021/09/11 07:18:19;;;;;;;8.52;6.93;;;19.60;99.90;;;;;;5090616;28;20201;-74
2021/09/11 07:20:46;;;;;;;12.00;8.02;;;19.80;99.90;;;;;;5090296;28;20578;-74
2021/09/11 07:23:13;;;;;;;11.45;7.95;;;19.70;99.90;;;;;;5090091;28;20205;-73
2021/09/11 07:25:41;;;;;;;11.40;8.10;;;19.70;99.90;;;;;;5090910;28;20544;-73
2021/09/11 07:28:08;;;;;;;10.45;7.45;;;19.70;99.90;;;;;;5091091;28;20231;-74
2021/09/11 07:30:35;;;;;;;9.77;7.28;;;19.80;99.90;;;;;;5088068;28;20546;-73
2021/09/11 07:33:02;;;;;;;14.25;8.32;;;19.90;99.90;;;;;;5089402;28;20300;-74
2021/09/11 07:35:30;;;;;;;11.60;7.47;;;19.90;99.90;;;;;;5089467;28;20566;-73
2021/09/11 07:37:57;;;;;;;12.25;7.97;;;19.90;99.90;;;;;;5089167;28;20198;-74
2021/09/11 07:40:24;;;;;;;12.25;8.85;;;19.90;99.90;;;;;;5089396;28;20327;-74
2021/09/11 07:42:52;;;;;;;11.25;7.95;;;20.00;99.90;;;;;;5089780;28;20216;-73
2021/09/11 07:45:19;;;;;;;16.02;10.05;;;20.20;99.90;;;;;;5091004;28;20712;-73
2021/09/11 07:47:46;;;;;;;16.45;10.80;;;20.20;99.90;;;;;;5091954;28;20580;-74
2021/09/11 07:50:14;;;;;;;18.67;12.73;;;20.30;99.90;;;;;;5098416;28;20202;-74
2021/09/11 07:52:41;;;;;;;15.60;10.43;;;20.40;99.90;;;;;;5092970;28;20631;-74
2021/09/11 07:55:09;;;;;;;14.77;10.45;;;20.50;99.90;;;;;;5093782;28;20206;-73
2021/09/11 07:57:36;;;;;;;16.50;10.82;;;20.60;99.90;;;;;;5093084;28;20209;-74
2021/09/11 08:00:05;;;;;;;14.85;9.70;;;20.60;99.90;;;;;;5093410;28;20205;-74
2021/09/11 08:02:32;;;;;;;14.48;9.45;;;20.80;99.90;;;;;;5093634;28;20216;-74
2021/09/11 08:04:59;;;;;;;13.05;9.73;;;20.90;99.90;;;;;;5098952;28;20197;-74
2021/09/11 08:07:27;;;;;;;15.02;10.10;;;20.80;99.90;;;;;;5094430;28;20217;-73
2021/09/11 08:09:55;;;;;;;17.70;10.50;;;20.90;99.90;;;;;;5092548;28;20229;-73
2021/09/11 08:12:22;;;;;;;15.88;10.30;;;21.10;99.90;;;;;;5093604;28;20197;-73
2021/09/11 08:14:49;;;;;;;15.63;10.13;;;21.00;99.90;;;;;;5094033;28;20198;-73
2021/09/11 08:17:17;;;;;;;15.73;11.15;;;21.10;99.90;;;;;;5093577;28;20203;-75
2021/09/11 08:19:44;;;;;;;17.70;11.32;;;21.00;99.90;;;;;;5095998;28;20640;-74
2021/09/11 08:22:11;;;;;;;17.20;11.18;;;20.90;99.90;;;;;;5092816;28;20212;-74
2021/09/11 08:24:38;;;;;;;17.20;12.05;;;20.80;99.90;;;;;;5093800;28;20284;-74
2021/09/11 08:27:05;;;;;;;19.85;12.52;;;20.90;99.90;;;;;;5092066;28;20202;-74
2021/09/11 08:29:32;;;;;;;18.38;12.48;;;21.00;99.90;;;;;;5097174;28;20228;-74
2021/09/11 08:31:59;;;;;;;20.08;12.40;;;20.90;99.90;;;;;;5094237;28;20310;-74
2021/09/11 08:34:27;;;;;;;19.13;12.38;;;20.90;99.90;;;;;;5094088;28;20569;-74
2021/09/11 08:36:54;;;;;;;27.85;13.98;;;21.00;99.90;;;;;;5089971;28;20548;-75
2021/09/11 08:39:24;;;;;;;19.05;12.48;;;21.20;99.90;;;;;;5092625;28;20695;-75
2021/09/11 08:41:51;;;;;;;17.85;11.55;;;21.50;99.90;;;;;;5088494;28;20210;-73
2021/09/11 08:44:18;;;;;;;19.83;12.52;;;21.60;99.90;;;;;;5087906;28;20194;-74
2021/09/11 08:46:48;;;;;;;20.15;14.30;;;21.80;99.90;;;;;;5088121;28;20198;-74
2021/09/11 08:49:15;;;;;;;20.27;13.90;;;21.60;99.90;;;;;;5086402;28;20267;-74
2021/09/11 08:51:43;;;;;;;20.13;13.63;;;21.70;99.90;;;;;;5088995;28;20206;-74
2021/09/11 08:54:14;;;;;;;20.92;13.02;;;21.60;99.90;;;;;;5092497;28;20566;-75
2021/09/11 08:56:43;;;;;;;20.50;13.63;;;21.50;99.90;;;;;;5091410;28;20201;-74
2021/09/11 08:59:12;;;;;;;20.15;14.55;;;21.40;99.90;;;;;;5088679;28;20280;-76
2021/09/11 09:01:39;;;;;;;20.27;14.10;;;21.40;99.90;;;;;;5088462;28;20213;-74
2021/09/11 09:04:07;;;;;;;19.23;13.88;;;21.40;99.90;;;;;;5088324;28;20204;-74
2021/09/11 09:06:35;;;;;;;19.52;13.32;;;21.60;99.90;;;;;;5087048;28;20717;-74
2021/09/11 09:09:09;;;;;;;19.23;12.98;;;21.70;99.90;;;;;;5087226;28;20225;-74
2021/09/11 09:11:37;;;;;;;22.23;13.82;;;21.80;99.90;;;;;;5088449;28;20308;-74
2021/09/11 09:14:06;;;;;;;18.60;13.38;;;21.90;99.90;;;;;;5088544;28;20202;-74
2021/09/11 09:16:36;;;;;;;18.20;12.73;;;22.10;99.90;;;;;;5091202;28;20293;-76
2021/09/11 09:19:05;;;;;;;19.20;13.68;;;22.60;99.90;;;;;;5089819;28;20193;-77
2021/09/11 09:21:33;;;;;;;20.25;12.82;;;23.00;99.90;;;;;;5091811;28;20251;-76
2021/09/11 09:24:02;;;;;;;18.77;11.73;;;23.50;99.90;;;;;;5094009;28;20220;-76
2021/09/11 09:26:32;;;;;;;17.83;12.70;;;24.00;99.90;;;;;;5089908;28;20213;-77
2021/09/11 09:29:08;;;;;;;17.20;12.50;;;23.60;99.90;;;;;;5092726;28;20223;-76
2021/09/11 09:31:36;;;;;;;16.30;11.93;;;24.00;99.90;;;;;;5086007;28;20313;-76
2021/09/11 09:34:03;;;;;;;17.48;11.65;;;23.60;99.90;;;;;;5092255;28;20205;-76
2021/09/11 09:36:35;;;;;;;17.63;12.02;;;23.50;99.90;;;;;;5089209;28;20198;-76
2021/09/11 09:39:04;;;;;;;15.98;11.80;;;23.20;99.90;;;;;;5088947;28;20197;-76
2021/09/11 09:41:44;;;;;;;18.30;12.10;;;23.60;99.90;;;;;;5090632;28;20691;-77
2021/09/11 09:44:12;;;;;;;19.10;12.80;;;23.60;99.90;;;;;;5091459;28;20208;-77
2021/09/11 09:46:40;;;;;;;17.33;12.38;;;24.30;99.90;;;;;;5095206;28;20198;-79
2021/09/11 09:49:08;;;;;;;17.02;12.40;;;24.40;99.90;;;;;;5090741;28;20581;-79
2021/09/11 09:51:35;;;;;;;15.90;11.27;;;24.40;99.90;;;;;;5093813;28;20651;-79
2021/09/11 09:54:02;;;;;;;16.33;11.75;;;24.60;99.90;;;;;;5091921;28;20288;-79
2021/09/11 09:56:31;;;;;;;18.55;13.50;;;25.00;99.90;;;;;;5092394;28;20201;-79
2021/09/11 09:59:00;;;;;;;17.85;12.95;;;25.20;99.90;;;;;;5092725;28;20281;-79
2021/09/11 10:01:27;;;;;;;16.00;11.27;;;25.20;99.90;;;;;;5092289;28;20610;-79
2021/09/11 10:03:55;;;;;;;14.25;10.38;;;25.30;99.90;;;;;;5091778;28;20663;-80
2021/09/11 10:06:27;;;;;;;14.00;11.27;;;25.70;99.90;;;;;;5089610;28;20197;-81
2021/09/11 10:08:58;;;;;;;14.52;11.32;;;25.40;99.90;;;;;;5089762;28;20218;-78
2021/09/11 10:11:34;;;;;;;16.02;10.43;;;25.00;99.90;;;;;;5090528;28;20243;-78
2021/09/11 10:14:05;;;;;;;12.50;10.18;;;25.40;99.90;;;;;;5092909;28;20201;-78
2021/09/11 10:16:35;;;;;;;11.73;9.70;;;25.50;99.90;;;;;;5085558;28;20220;-79
2021/09/11 10:19:15;;;;;;;14.48;10.07;;;26.00;99.90;;;;;;5096922;28;20250;-79
2021/09/11 10:21:42;;;;;;;13.43;10.32;;;25.90;99.90;;;;;;5120673;28;20205;-79
2021/09/11 10:24:33;;;;;;;15.25;10.85;;;25.00;99.90;;;;;;5085167;28;20204;-79
2021/09/11 10:27:21;;;;;;;15.15;11.00;;;24.80;99.90;;;;;;5085997;28;20207;-79
2021/09/11 10:29:59;;;;;;;14.77;11.02;;;24.40;99.90;;;;;;5085582;28;20667;-82
2021/09/11 10:32:44;;;;;;;15.40;11.70;;;24.10;99.90;;;;;;5064675;22;20236;-79
2021/09/11 10:35:17;;;;;;;14.75;11.65;;;23.90;99.90;;;;;;5004438;28;20221;-80
2021/09/11 10:37:46;;;;;;;15.93;11.75;;;23.70;99.90;;;;;;5003711;28;20207;-80
2021/09/11 10:40:32;;;;;;;15.57;12.18;;;23.90;99.90;;;;;;4999386;28;20287;-79
2021/09/11 10:43:19;;;;;;;15.35;11.63;;;23.70;99.90;;;;;;5008404;28;20720;-80
2021/09/11 10:46:11;;;;;;;16.70;12.23;;;23.90;99.90;;;;;;5007445;28;20688;-79
2021/09/11 10:48:47;;;;;;;16.77;12.60;;;23.90;99.90;;;;;;5006345;28;20216;-79
2021/09/11 10:51:21;;;;;;;14.23;11.70;;;23.70;99.90;;;;;;5011426;28;20238;-79
2021/09/11 10:54:00;;;;;;;15.88;12.80;;;23.80;99.90;;;;;;5000147;28;20209;-79
2021/09/11 10:56:28;;;;;;;16.00;12.65;;;23.70;99.90;;;;;;5000568;28;20355;-79
2021/09/11 10:59:24;;;;;;;17.15;12.95;;;23.70;99.90;;;;;;5008166;28;20294;-79
2021/09/11 11:02:07;;;;;;;17.23;12.18;;;23.50;99.90;;;;;;4998261;28;20209;-79
2021/09/11 11:04:36;;;;;;;16.65;12.60;;;23.50;99.90;;;;;;5009348;28;20553;-79
2021/09/11 11:07:05;;;;;;;16.23;12.98;;;23.40;99.90;;;;;;5007377;28;20274;-78
2021/09/11 11:09:38;;;;;;;14.07;11.50;;;23.40;99.90;;;;;;4999954;28;20231;-79
2021/09/11 11:12:06;;;;;;;13.25;10.50;;;23.40;99.90;;;;;;5003470;28;20201;-78
2021/09/11 11:14:34;;;;;;;16.40;9.77;;;23.40;99.90;;;;;;5006885;28;20201;-78
2021/09/11 11:17:01;;;;;;;13.77;10.30;;;23.20;99.90;;;;;;5007240;28;20295;-78
2021/09/11 11:19:31;;;;;;;13.77;10.48;;;23.20;99.90;;;;;;5005119;28;20283;-79
2021/09/11 11:22:01;;;;;;;12.25;10.43;;;23.50;99.90;;;;;;5007327;28;20205;-78
2021/09/11 11:24:32;;;;;;;12.00;9.50;;;24.10;99.90;;;;;;5012875;28;20353;-79
2021/09/11 11:27:00;;;;;;;12.88;9.25;;;24.40;99.90;;;;;;5009338;28;20232;-79
2021/09/11 11:29:28;;;;;;;10.70;9.05;;;24.10;99.90;;;;;;5011768;28;20235;-79
2021/09/11 11:31:55;;;;;;;10.60;8.63;;;24.10;99.90;;;;;;5006802;28;20307;-79
2021/09/11 11:34:22;;;;;;;11.57;8.30;;;24.00;99.90;;;;;;5004683;28;20232;-79
2021/09/11 11:36:53;;;;;;;10.48;8.25;;;24.40;99.90;;;;;;5007287;28;20226;-79
2021/09/11 11:39:22;;;;;;;10.68;8.35;;;24.70;99.90;;;;;;5005721;28;20196;-79
2021/09/11 11:42:00;;;;;;;10.75;8.48;;;25.00;99.90;;;;;;5008280;28;20211;-79
2021/09/11 11:44:28;;;;;;;10.57;8.43;;;25.10;99.90;;;;;;5004627;28;20208;-80
2021/09/11 11:47:03;;;;;;;11.68;8.73;;;25.30;99.90;;;;;;5008029;28;20211;-79
2021/09/11 11:49:38;;;;;;;11.23;9.13;;;25.00;99.90;;;;;;5003499;28;20307;-79
2021/09/11 11:52:09;;;;;;;12.45;9.60;;;25.10;99.90;;;;;;4999635;28;20204;-78
2021/09/11 11:54:38;;;;;;;11.25;9.63;;;24.70;99.90;;;;;;5007275;28;20594;-80
2021/09/11 11:57:11;;;;;;;10.25;8.73;;;24.20;99.90;;;;;;5002429;28;20240;-79
2021/09/11 11:59:38;;;;;;;11.93;9.55;;;23.90;99.90;;;;;;5002726;28;20204;-80
2021/09/11 12:02:22;;;;;;;10.93;9.10;;;24.10;99.90;;;;;;5011182;28;20238;-78
2021/09/11 12:04:49;;;;;;;9.82;8.60;;;23.90;99.90;;;;;;5008543;28;20224;-79
2021/09/11 12:07:33;;;;;;;7.65;6.82;;;24.40;99.90;;;;;;5009767;28;20212;-79
2021/09/11 12:10:01;;;;;;;7.80;6.68;;;24.80;99.90;;;;;;5010168;28;20307;-79
2021/09/11 12:12:42;;;;;;;7.57;6.88;;;24.10;99.90;;;;;;5011060;28;20204;-79
2021/09/11 12:15:11;;;;;;;7.70;6.85;;;23.90;99.90;;;;;;5002295;28;20312;-79
2021/09/11 12:17:37;;;;;;;7.95;6.63;;;23.70;99.90;;;;;;5001229;28;20216;-79
2021/09/11 12:20:15;;;;;;;6.90;6.20;;;23.80;99.90;;;;;;5009125;28;20227;-79
2021/09/11 12:22:43;;;;;;;8.38;6.20;;;24.40;99.90;;;;;;5006036;28;20200;-79
2021/09/11 12:25:10;;;;;;;5.97;5.40;;;24.90;99.90;;;;;;5012584;28;20224;-81
2021/09/11 12:27:37;;;;;;;4.40;4.00;;;24.70;99.90;;;;;;5011958;28;20232;-78
2021/09/11 12:30:06;;;;;;;5.22;3.88;;;24.70;99.90;;;;;;5005101;28;20229;-80
2021/09/11 12:32:33;;;;;;;4.18;3.10;;;24.80;99.90;;;;;;5007309;28;20311;-79
2021/09/11 12:35:08;;;;;;;3.50;3.25;;;24.90;99.90;;;;;;5007511;28;20224;-79
2021/09/11 12:37:55;;;;;;;4.32;3.22;;;25.10;99.90;;;;;;5002037;28;20204;-77
2021/09/11 12:40:22;;;;;;;4.68;4.20;;;25.80;99.90;;;;;;5005588;28;20205;-78
2021/09/11 12:42:49;;;;;;;5.60;5.03;;;25.10;99.90;;;;;;5004478;28;20243;-79